BBC Congo — V2EL3 — position and weather

sailwx.info

Track history (hours):
 
Tides and Currents Weather Stations Pressure Air Temp Water Temp Dewpoint Dewpoint Depression Visibility Wind Speed Wind Dir Waves Ship Positions

BBC Congo

Last reported at 2015-Feb-28 04:27 UTC. Time now 2015-Mar-05 16:06 UTC.
Position N 37°25' E 026°01'.

Length 144 m; draft 7.8 m.

Type: Ship. MMSI: 305466000.

Date/timePositionNaut miles runAvg speedWind from/ knotsBaromVisibWave heightAir tempDewpointWater temp
2015-Feb-28 04:27N 37°25' E 026°01'1213.6
2015-Feb-28 03:33N 37°36' E 025°53'  
2015-Feb-19 12:21N 41°32' E 029°14'8 9.8
2015-Feb-19 11:33N 41°25' E 029°13'1010.1
2015-Feb-19 10:33N 41°15' E 029°09'17 8.6
2015-Feb-19 08:33N 40°59' E 028°60'6 5.5
2015-Feb-19 07:26N 40°54' E 028°57'5 5.8
2015-Feb-19 06:33N 40°51' E 028°51'5 4.7
2015-Feb-19 05:32N 40°47' E 028°46'0 0.4
2015-Feb-19 04:33N 40°47' E 028°47'0 0.2
2015-Feb-19 03:28N 40°47' E 028°47'2 1.7
2015-Feb-19 02:33N 40°48' E 028°49'1 0.7
2015-Feb-19 01:33N 40°49' E 028°49'7 6.6
2015-Feb-19 00:26N 40°49' E 028°39'  
Track history (hours):
 
Tides and Currents Weather Stations Pressure Air Temp Water Temp Dewpoint Dewpoint Depression Visibility Wind Speed Wind Dir Waves Ship Positions

BBC Congo

Last reported at 2015-Feb-28 04:27 UTC. Time now 2015-Mar-05 16:06 UTC.
Position N 37°25' E 026°01'.

Length 144 m; draft 7.8 m.

Type: Ship. MMSI: 305466000.

Date/timePositionNaut miles runAvg speedWind from/ knotsBaromVisibWave heightAir tempDewpointWater temp
2015-Feb-28 04:27N 37°25' E 026°01'1213.6
2015-Feb-28 03:33N 37°36' E 025°53'  
2015-Feb-19 12:21N 41°32' E 029°14'8 9.8
2015-Feb-19 11:33N 41°25' E 029°13'1010.1
2015-Feb-19 10:33N 41°15' E 029°09'17 8.6
2015-Feb-19 08:33N 40°59' E 028°60'6 5.5
2015-Feb-19 07:26N 40°54' E 028°57'5 5.8
2015-Feb-19 06:33N 40°51' E 028°51'5 4.7
2015-Feb-19 05:32N 40°47' E 028°46'0 0.4
2015-Feb-19 04:33N 40°47' E 028°47'0 0.2
2015-Feb-19 03:28N 40°47' E 028°47'2 1.7
2015-Feb-19 02:33N 40°48' E 028°49'1 0.7
2015-Feb-19 01:33N 40°49' E 028°49'7 6.6
2015-Feb-19 00:26N 40°49' E 028°39'  

Dump ship's entire track history